createdAt,value
2023-04-16T00:04:33.172Z,26.27
2023-04-16T00:12:11.443Z,27.85
2023-04-16T00:19:45.497Z,27.38
2023-04-16T00:27:35.124Z,26.70
2023-04-16T00:35:11.646Z,31.10
2023-04-16T00:43:01.665Z,27.40
2023-04-16T00:50:55.016Z,30.70
2023-04-16T00:58:57.911Z,30.90
2023-04-16T01:06:43.861Z,34.28
2023-04-16T01:14:27.793Z,29.02
2023-04-16T01:30:03.461Z,32.95
2023-04-16T01:38:12.979Z,32.50
2023-04-16T01:46:28.652Z,25.67
2023-04-16T01:54:28.018Z,32.07
2023-04-16T02:02:16.219Z,34.45
2023-04-16T02:10:01.703Z,36.63
2023-04-16T02:26:01.925Z,33.20
2023-04-16T02:33:47.794Z,34.17
2023-04-16T02:41:30.451Z,27.35
2023-04-16T02:58:02.011Z,32.00
2023-04-16T03:05:40.327Z,37.03
2023-04-16T03:14:00.399Z,39.35
2023-04-16T03:22:20.834Z,38.88
2023-04-16T03:31:02.057Z,44.40
2023-04-16T03:38:45.140Z,46.42
2023-04-16T03:46:20.845Z,46.72
2023-04-16T03:54:16.045Z,37.40
2023-04-16T04:01:56.259Z,39.08
2023-04-16T04:09:47.588Z,38.20
2023-04-16T04:17:21.414Z,36.97
2023-04-16T04:25:27.894Z,35.38
2023-04-16T04:33:36.970Z,42.08
2023-04-16T04:41:15.539Z,38.97
2023-04-16T04:49:52.152Z,49.80
2023-04-16T04:57:27.619Z,38.58
2023-04-16T05:05:01.453Z,39.25
2023-04-16T05:12:40.333Z,41.50
2023-04-16T05:28:42.157Z,42.10
2023-04-16T05:52:48.864Z,35.35
2023-04-16T06:08:16.135Z,37.47
2023-04-16T06:15:51.765Z,33.37
2023-04-16T06:23:25.939Z,31.55
2023-04-16T06:31:01.902Z,29.30
2023-04-16T06:38:38.230Z,35.97
2023-04-16T06:46:14.010Z,31.17
2023-04-16T06:53:47.975Z,31.73
2023-04-16T07:01:23.831Z,30.87
2023-04-16T07:08:57.673Z,37.20
2023-04-16T07:16:33.193Z,29.80
2023-04-16T07:24:07.384Z,31.85
2023-04-16T07:31:43.699Z,30.77
2023-04-16T07:39:18.304Z,31.88
2023-04-16T07:46:54.066Z,28.45
2023-04-16T07:54:29.205Z,31.85
2023-04-16T08:02:06.296Z,27.60
2023-04-16T08:09:49.767Z,29.77
2023-04-16T08:17:25.550Z,26.92
2023-04-16T08:24:59.848Z,26.63
2023-04-16T08:32:35.828Z,27.20
2023-04-16T08:40:10.981Z,29.38
2023-04-16T08:55:42.431Z,30.50
2023-04-16T09:03:19.977Z,24.60
2023-04-16T09:10:55.082Z,23.63
2023-04-16T09:26:06.661Z,24.65
2023-04-16T09:41:17.964Z,19.58
2023-04-16T09:48:53.433Z,19.58
2023-04-16T09:56:27.500Z,20.45
2023-04-16T10:04:09.963Z,19.70
2023-04-16T10:11:44.631Z,24.40
2023-04-16T10:19:20.113Z,19.63
2023-04-16T10:34:48.164Z,25.05
2023-04-16T10:42:22.034Z,29.65
2023-04-16T10:49:57.454Z,31.85
2023-04-16T10:57:32.081Z,29.67
2023-04-16T11:05:08.488Z,30.55
2023-04-16T11:12:45.153Z,28.73
2023-04-16T11:20:22.282Z,34.50
2023-04-16T11:27:57.355Z,32.88
2023-04-16T11:43:24.564Z,33.13
2023-04-16T11:51:00.219Z,35.67
2023-04-16T11:58:34.228Z,32.85
2023-04-16T12:13:44.962Z,22.92
2023-04-16T12:21:20.582Z,24.50
2023-04-16T12:28:54.605Z,21.95
2023-04-16T12:36:30.143Z,27.67
2023-04-16T12:44:06.813Z,18.65
2023-04-16T12:51:43.108Z,18.98
2023-04-16T12:59:20.990Z,19.80
2023-04-16T13:06:56.973Z,18.10
2023-04-16T13:14:31.526Z,14.25
2023-04-16T13:29:58.503Z,15.25
2023-04-16T13:37:34.298Z,17.05
2023-04-16T13:45:09.417Z,11.02
2023-04-16T13:52:44.700Z,13.20
2023-04-16T14:00:19.873Z,12.10
2023-04-16T14:07:55.410Z,13.18
2023-04-16T14:15:30.058Z,17.38
2023-04-16T14:23:05.388Z,15.90
2023-04-16T14:30:39.304Z,13.23
2023-04-16T14:38:14.751Z,12.65
2023-04-16T14:45:48.820Z,13.77
2023-04-16T14:53:24.515Z,14.93
2023-04-16T15:00:59.449Z,14.73
2023-04-16T15:16:09.751Z,10.27
2023-04-16T15:23:45.049Z,10.57
2023-04-16T15:31:20.805Z,8.63
2023-04-16T15:38:56.230Z,7.57
2023-04-16T15:46:32.023Z,8.00
2023-04-16T15:54:07.527Z,8.60
2023-04-16T16:01:41.427Z,7.95
2023-04-16T16:09:16.769Z,6.53
2023-04-16T16:16:50.702Z,8.55
2023-04-16T16:24:26.492Z,9.32
2023-04-16T16:32:00.495Z,7.88
2023-04-16T16:39:38.549Z,10.50
2023-04-16T16:47:13.060Z,12.07
2023-04-16T16:54:48.412Z,12.93
2023-04-16T17:02:22.706Z,13.43
2023-04-16T17:10:01.365Z,13.17
2023-04-16T17:17:37.170Z,10.77
2023-04-16T17:33:28.052Z,11.45
2023-04-16T17:41:03.319Z,11.88
2023-04-16T17:48:37.475Z,13.02
2023-04-16T17:56:13.814Z,16.97
2023-04-16T18:03:47.902Z,11.57
2023-04-16T18:11:23.668Z,13.27
2023-04-16T18:18:57.669Z,11.57
2023-04-16T18:26:35.615Z,11.23
2023-04-16T18:34:10.176Z,15.27
2023-04-16T18:41:47.814Z,16.37
2023-04-16T18:49:21.991Z,12.48
2023-04-16T18:56:59.684Z,18.00
2023-04-16T19:04:38.160Z,11.43
2023-04-16T19:12:13.597Z,13.40
2023-04-16T19:19:47.464Z,12.00
2023-04-16T19:27:22.820Z,11.05
2023-04-16T19:34:56.653Z,12.43
2023-04-16T19:42:32.091Z,13.85
2023-04-16T19:50:06.667Z,15.35
2023-04-16T19:57:42.107Z,14.77
2023-04-16T20:05:16.421Z,10.55
2023-04-16T20:12:52.157Z,10.13
2023-04-16T20:20:28.558Z,11.30
2023-04-16T20:28:03.903Z,10.90
2023-04-16T20:35:37.911Z,11.15
2023-04-16T20:43:14.226Z,10.43
2023-04-16T20:50:48.300Z,10.15
2023-04-16T20:58:23.571Z,13.90
2023-04-16T21:05:57.541Z,10.43
2023-04-16T21:13:33.030Z,15.17
2023-04-16T21:21:07.468Z,12.25
2023-04-16T21:28:43.222Z,13.82
2023-04-16T21:36:17.268Z,11.00
2023-04-16T21:43:52.485Z,13.10
2023-04-16T21:51:29.944Z,12.38
2023-04-16T21:59:05.473Z,11.23
2023-04-16T22:06:40.767Z,11.73
2023-04-16T22:14:17.996Z,14.55
2023-04-16T22:21:52.176Z,12.13
2023-04-16T22:29:27.826Z,13.10
2023-04-16T22:37:03.619Z,14.13
2023-04-16T22:44:39.125Z,11.23
2023-04-16T22:52:13.416Z,13.25
2023-04-16T22:59:50.325Z,14.43
2023-04-16T23:07:24.262Z,12.90
2023-04-16T23:15:00.963Z,13.43
2023-04-16T23:22:35.189Z,14.60
2023-04-16T23:30:14.742Z,14.00
2023-04-16T23:37:48.915Z,13.05
2023-04-16T23:45:24.620Z,13.17
2023-04-16T23:52:58.700Z,15.18
